Time;durP1;ratioP1;P1;durP2;ratioP2;P2;SDS_P1;SDS_P2;PMS_P1;PMS_P2;Temp;Humidity;BMP_temperature;BMP_pressure;BME280_temperature;BME280_humidity;BME280_pressure;Samples;Min_cycle;Max_cycle;Signal;HPM_P1;HPM_P2
2022/07/10 00:01:33;;;;;;;3.25;1.80;;;;;;;18.05;56.39;99649.63;2620261;47;20082;-65
2022/07/10 00:04:06;;;;;;;4.00;1.93;;;;;;;18.06;56.36;99636.00;2620471;54;20022;-64
2022/07/10 00:06:35;;;;;;;4.55;1.90;;;;;;;18.07;56.12;99639.50;2623890;47;20283;-65
2022/07/10 00:09:06;;;;;;;2.65;2.40;;;;;;;18.14;55.72;99644.78;2619603;47;20541;-65
2022/07/10 00:11:35;;;;;;;3.03;2.65;;;;;;;18.22;55.46;99641.81;2620881;54;20026;-65
2022/07/10 00:14:05;;;;;;;3.45;2.22;;;;;;;18.24;55.09;99640.53;2620376;54;20045;-63
2022/07/10 00:16:35;;;;;;;6.20;4.78;;;;;;;18.29;55.33;99642.59;2620996;54;20178;-65
2022/07/10 00:19:07;;;;;;;4.80;1.92;;;;;;;18.25;55.30;99636.03;2620171;54;20082;-65
2022/07/10 00:21:36;;;;;;;3.75;2.30;;;;;;;18.13;55.48;99641.31;2619520;39;20094;-63
2022/07/10 00:24:07;;;;;;;3.58;2.42;;;;;;;18.02;56.20;99648.19;2619029;54;20034;-63
2022/07/10 00:26:36;;;;;;;2.53;2.33;;;;;;;18.02;56.24;99645.50;2618879;54;20018;-65
2022/07/10 00:29:06;;;;;;;5.45;2.58;;;;;;;17.99;56.25;99651.28;2618787;54;20023;-64
2022/07/10 00:31:35;;;;;;;5.28;2.50;;;;;;;17.93;56.03;99646.84;2619264;54;20064;-66
2022/07/10 00:34:08;;;;;;;4.15;1.92;;;;;;;17.61;56.91;99653.25;2619006;54;20565;-65
2022/07/10 00:36:38;;;;;;;4.90;2.03;;;;;;;17.54;56.93;99647.94;2619783;54;20054;-64
2022/07/10 00:39:07;;;;;;;3.80;2.28;;;;;;;17.60;57.12;99651.63;2621616;54;20043;-65
2022/07/10 00:41:37;;;;;;;7.13;2.25;;;;;;;17.60;56.95;99648.94;2622199;47;20034;-65
2022/07/10 00:44:07;;;;;;;2.90;1.85;;;;;;;17.58;56.97;99657.97;2624123;54;20547;-67
2022/07/10 00:46:40;;;;;;;5.60;2.33;;;;;;;17.54;56.51;99655.97;2621100;54;20037;-66
2022/07/10 00:49:12;;;;;;;3.55;2.95;;;;;;;17.54;56.84;99655.97;2622811;54;20042;-65
2022/07/10 00:51:42;;;;;;;2.90;2.20;;;;;;;17.55;56.85;99658.44;2625847;54;20039;-65
2022/07/10 00:54:11;;;;;;;2.97;2.38;;;;;;;17.55;56.80;99655.78;2625683;54;20038;-66
2022/07/10 00:56:42;;;;;;;3.58;2.38;;;;;;;17.49;57.43;99658.47;2624052;54;20023;-64
2022/07/10 00:59:12;;;;;;;5.63;2.28;;;;;;;17.24;57.29;99655.78;2623305;54;20037;-66
2022/07/10 01:01:42;;;;;;;10.50;2.60;;;;;;;17.11;58.09;99658.53;2622416;39;20421;-64
2022/07/10 01:04:14;;;;;;;6.40;1.90;;;;;;;17.09;58.06;99662.22;2619441;54;20042;-64
2022/07/10 01:06:44;;;;;;;2.40;1.60;;;;;;;17.11;57.68;99658.53;2621761;54;20027;-67
2022/07/10 01:09:13;;;;;;;2.90;1.70;;;;;;;17.07;58.11;99656.28;2622889;47;20030;-66
2022/07/10 01:11:43;;;;;;;2.58;1.90;;;;;;;17.11;57.78;99650.50;2620329;54;20026;-66
2022/07/10 01:14:16;;;;;;;4.43;1.85;;;;;;;16.93;57.74;99654.69;2619649;54;20041;-66
2022/07/10 01:16:46;;;;;;;5.38;1.52;;;;;;;16.88;58.22;99656.38;2619326;54;20042;-66
2022/07/10 01:19:18;;;;;;;3.00;1.90;;;;;;;16.94;58.47;99661.69;2618757;54;20614;-64
2022/07/10 01:21:51;;;;;;;5.13;2.10;;;;;;;17.01;58.00;99650.97;2619838;39;20382;-64
2022/07/10 01:24:20;;;;;;;4.35;2.22;;;;;;;17.01;57.69;99653.63;2619264;46;20042;-65
2022/07/10 01:26:50;;;;;;;2.88;2.17;;;;;;;17.00;57.76;99649.31;2619143;54;20026;-65
2022/07/10 01:29:20;;;;;;;3.33;2.00;;;;;;;16.98;57.77;99656.72;2618492;54;20034;-66
2022/07/10 01:31:49;;;;;;;3.10;1.83;;;;;;;16.99;58.10;99658.38;2619801;54;20558;-66
2022/07/10 01:34:25;;;;;;;7.00;2.25;;;;;;;16.88;58.55;99661.72;2621796;54;20038;-64
2022/07/10 01:36:57;;;;;;;3.95;2.13;;;;;;;16.80;58.47;99666.25;2622865;39;20564;-66
2022/07/10 01:39:27;;;;;;;5.32;2.15;;;;;;;16.76;58.96;99672.22;2621858;39;20427;-66
2022/07/10 01:41:56;;;;;;;3.05;1.90;;;;;;;16.68;58.81;99665.25;2621569;54;20030;-65
2022/07/10 01:44:26;;;;;;;4.43;2.17;;;;;;;16.69;59.26;99666.88;2620707;54;20034;-66
2022/07/10 01:46:56;;;;;;;2.58;1.70;;;;;;;16.59;59.32;99670.00;2619323;54;20042;-65
2022/07/10 01:49:25;;;;;;;3.35;1.75;;;;;;;16.57;59.56;99664.06;2619979;54;20046;-65
2022/07/10 01:51:58;;;;;;;5.07;1.95;;;;;;;16.54;59.64;99672.50;2618947;47;20034;-66
2022/07/10 01:54:27;;;;;;;4.43;1.90;;;;;;;16.48;59.46;99672.50;2618508;54;20030;-65
2022/07/10 01:56:57;;;;;;;3.45;1.75;;;;;;;16.41;59.82;99669.00;2619701;54;20019;-63
2022/07/10 01:59:26;;;;;;;8.35;2.30;;;;;;;16.38;59.91;99666.78;2618986;54;20026;-63
2022/07/10 02:01:56;;;;;;;2.53;2.22;;;;;;;16.41;60.10;99669.88;2619440;39;20454;-66
2022/07/10 02:07:10;;;;;;;6.75;2.20;;;;;;;16.42;59.77;99679.50;2619435;39;20702;-63
2022/07/10 02:09:41;;;;;;;6.55;2.08;;;;;;;16.32;59.83;99681.78;2619240;54;20045;-63
2022/07/10 02:12:12;;;;;;;3.78;2.10;;;;;;;16.33;59.82;99680.75;2619077;54;20038;-65
2022/07/10 02:14:43;;;;;;;5.45;2.08;;;;;;;16.19;60.05;99684.47;2619340;54;20041;-66
2022/07/10 02:17:13;;;;;;;3.43;1.60;;;;;;;16.07;60.06;99679.75;2618257;54;20034;-65
2022/07/10 02:19:42;;;;;;;3.95;2.13;;;;;;;15.96;60.28;99683.06;2618941;54;20039;-64
2022/07/10 02:22:15;;;;;;;6.30;2.40;;;;;;;15.84;60.63;99684.72;2618699;54;20045;-64
2022/07/10 02:24:44;;;;;;;2.33;1.77;;;;;;;15.91;60.86;99693.50;2619033;54;20083;-65
2022/07/10 02:27:14;;;;;;;6.22;3.95;;;;;;;16.00;60.38;99686.97;2618218;54;20025;-66
2022/07/10 02:29:44;;;;;;;4.63;2.40;;;;;;;15.99;60.10;99693.28;2619848;54;20069;-65
2022/07/10 02:32:13;;;;;;;3.58;2.05;;;;;;;16.02;60.64;99689.41;2619982;54;20036;-65
2022/07/10 02:34:44;;;;;;;4.47;2.33;;;;;;;16.16;60.32;99685.69;2619831;39;20431;-66
2022/07/10 02:37:16;;;;;;;4.97;2.10;;;;;;;16.28;59.70;99675.22;2619732;54;20026;-66
2022/07/10 02:39:47;;;;;;;4.47;2.22;;;;;;;16.33;59.86;99670.09;2619184;54;20034;-65
2022/07/10 02:42:16;;;;;;;3.50;1.98;;;;;;;16.35;59.44;99668.00;2619431;39;20418;-65
2022/07/10 02:44:46;;;;;;;2.88;1.80;;;;;;;16.31;59.43;99672.94;2618353;54;20029;-66
2022/07/10 02:50:09;;;;;;;2.55;1.75;;;;;;;16.13;59.57;99675.44;2618129;54;20138;-64
2022/07/10 02:52:41;;;;;;;5.22;2.38;;;;;;;16.06;59.87;99677.31;2618706;54;20038;-63
2022/07/10 02:55:11;;;;;;;3.75;2.30;;;;;;;16.10;60.21;99671.34;2619001;54;20026;-65
2022/07/10 02:57:41;;;;;;;4.65;2.95;;;;;;;16.06;59.57;99680.78;2619636;39;20410;-64
2022/07/10 03:00:12;;;;;;;2.90;2.70;;;;;;;16.08;60.03;99680.56;2619004;39;20442;-63
2022/07/10 03:02:46;;;;;;;5.43;2.33;;;;;;;16.11;59.63;99677.50;2619957;54;20585;-65
2022/07/10 03:05:19;;;;;;;5.38;2.13;;;;;;;16.14;59.12;99681.59;2619898;54;20133;-64
2022/07/10 03:07:52;;;;;;;4.25;2.13;;;;;;;16.11;59.45;99682.81;2618489;54;20077;-64
2022/07/10 03:10:22;;;;;;;5.45;2.28;;;;;;;16.06;59.08;99683.44;2618803;54;20038;-65
2022/07/10 03:12:52;;;;;;;4.50;2.10;;;;;;;16.07;59.35;99686.94;2620486;54;20035;-64
2022/07/10 03:15:22;;;;;;;4.57;2.13;;;;;;;16.03;58.97;99686.53;2619419;39;20533;-64
2022/07/10 03:17:52;;;;;;;6.38;2.30;;;;;;;16.02;59.37;99690.22;2619827;39;20726;-66
2022/07/10 03:20:23;;;;;;;5.43;2.45;;;;;;;16.02;59.65;99692.88;2619928;39;20423;-63
2022/07/10 03:22:55;;;;;;;2.67;1.90;;;;;;;16.02;59.65;99689.41;2618808;54;20553;-64
2022/07/10 03:25:25;;;;;;;3.97;2.45;;;;;;;16.01;59.65;99696.59;2619457;39;20446;-66
2022/07/10 03:27:55;;;;;;;6.57;2.63;;;;;;;15.93;59.52;99699.47;2619718;39;20474;-66
2022/07/10 03:30:24;;;;;;;5.30;2.08;;;;;;;15.88;59.65;99695.75;2619005;54;20574;-66
2022/07/10 03:32:54;;;;;;;4.95;2.40;;;;;;;15.81;60.00;99693.94;2619640;54;20057;-64
2022/07/10 03:35:25;;;;;;;8.50;2.17;;;;;;;15.79;59.98;99697.81;2619374;54;20038;-65
2022/07/10 03:37:58;;;;;;;4.00;1.83;;;;;;;15.72;60.00;99694.34;2619421;54;20045;-66
2022/07/10 03:40:28;;;;;;;4.82;2.17;;;;;;;15.64;60.11;99692.66;2618497;54;20026;-66
2022/07/10 03:42:57;;;;;;;6.22;2.55;;;;;;;15.63;60.65;99690.19;2622155;54;20026;-65
2022/07/10 03:45:27;;;;;;;4.60;1.95;;;;;;;15.62;60.70;99697.34;2623673;54;20041;-65
2022/07/10 03:47:57;;;;;;;3.95;1.92;;;;;;;15.49;61.06;99694.69;2618073;54;20057;-64
2022/07/10 03:50:27;;;;;;;2.55;1.75;;;;;;;15.46;60.54;99709.22;2618553;54;20045;-64
2022/07/10 03:52:59;;;;;;;6.43;2.58;;;;;;;15.47;60.68;99702.88;2618581;54;20044;-68
2022/07/10 03:55:29;;;;;;;4.53;2.10;;;;;;;15.40;60.39;99704.72;2618748;54;20042;-63
2022/07/10 03:57:57;;;;;;;4.30;1.77;;;;;;;15.44;60.59;99700.63;2618301;54;20529;-66
2022/07/10 04:03:19;;;;;;;6.80;2.70;;;;;;;15.50;60.24;99701.66;2611296;39;20718;-65
2022/07/10 04:05:48;;;;;;;3.13;2.20;;;;;;;15.44;60.25;99715.78;2619013;54;20033;-64
2022/07/10 06:12:25;;;;;;;5.13;1.40;;;;;;;15.82;55.43;99756.06;2617034;54;20069;-73
2022/07/10 06:14:55;;;;;;;3.63;1.38;;;;;;;16.09;54.71;99764.91;2618488;54;20037;-69
2022/07/10 06:17:25;;;;;;;3.35;1.35;;;;;;;16.18;53.67;99769.00;2618562;54;20038;-69
2022/07/10 06:19:55;;;;;;;4.53;1.20;;;;;;;16.09;53.82;99771.06;2618481;54;20030;-69
2022/07/10 06:22:33;;;;;;;4.22;1.50;;;;;;;16.23;53.06;99771.06;2619026;39;20425;-69
2022/07/10 06:25:04;;;;;;;4.15;1.33;;;;;;;16.48;53.19;99768.56;2618572;47;20042;-70
2022/07/10 06:27:37;;;;;;;4.30;1.90;;;;;;;16.62;52.33;99770.22;2618412;54;20034;-70
2022/07/10 06:30:08;;;;;;;5.22;1.52;;;;;;;16.81;51.93;99772.03;2618411;54;20034;-71
2022/07/10 06:32:37;;;;;;;4.70;1.30;;;;;;;16.98;51.33;99769.75;2618604;54;20057;-70
2022/07/10 06:35:08;;;;;;;6.53;3.33;;;;;;;16.91;51.43;99768.94;2617172;51;20079;-71
2022/07/10 06:37:38;;;;;;;8.27;3.97;;;;;;;17.06;51.10;99766.00;2617162;54;20046;-71
2022/07/10 06:40:09;;;;;;;6.07;1.40;;;;;;;17.06;49.94;99766.00;2617333;54;20851;-71
2022/07/10 06:42:41;;;;;;;4.38;1.25;;;;;;;16.85;49.82;99764.41;2617709;39;20418;-71
2022/07/10 06:45:14;;;;;;;4.60;1.05;;;;;;;16.92;48.94;99767.91;2616888;54;20085;-71
2022/07/10 06:47:59;;;;;;;2.38;1.08;;;;;;;16.72;48.47;99767.91;2616713;54;20034;-69
2022/07/10 06:50:30;;;;;;;3.47;0.80;;;;;;;16.56;49.68;99768.34;2617453;31;20535;-70
2022/07/10 06:53:00;;;;;;;1.63;0.80;;;;;;;16.44;48.51;99770.84;2616607;54;20041;-71
2022/07/10 06:55:30;;;;;;;2.47;1.90;;;;;;;16.41;48.85;99770.41;2616714;54;20122;-71
2022/07/10 06:58:03;;;;;;;3.67;1.40;;;;;;;16.58;48.88;99772.47;2616851;54;20056;-71
2022/07/10 07:00:33;;;;;;;3.15;1.20;;;;;;;16.63;49.09;99774.50;2616668;54;20175;-67
2022/07/10 07:03:02;;;;;;;3.78;1.25;;;;;;;16.79;48.10;99774.09;2616780;54;20031;-69
2022/07/10 07:05:32;;;;;;;2.83;1.25;;;;;;;17.07;47.06;99765.78;2616919;47;20057;-68
2022/07/10 07:08:02;;;;;;;4.00;1.38;;;;;;;17.24;46.41;99768.00;2619415;54;20026;-68
2022/07/10 07:10:31;;;;;;;3.22;1.20;;;;;;;17.22;46.31;99768.19;2618786;54;20114;-69
2022/07/10 07:13:03;;;;;;;1.92;1.00;;;;;;;17.06;46.72;99774.00;2619198;54;20030;-70
2022/07/10 07:15:38;;;;;;;4.15;1.40;;;;;;;16.88;46.33;99777.34;2617682;54;20035;-69
2022/07/10 07:18:12;;;;;;;2.95;1.20;;;;;;;16.74;47.62;99773.91;2618064;54;20035;-69
2022/07/10 07:23:26;;;;;;;2.90;1.00;;;;;;;16.91;47.04;99776.13;2617911;54;20041;-69
2022/07/10 07:25:56;;;;;;;4.20;1.65;;;;;;;17.04;46.92;99768.06;2617943;54;20030;-69
2022/07/10 07:28:28;;;;;;;3.15;1.50;;;;;;;16.99;46.86;99768.69;2617412;47;20042;-68
2022/07/10 07:30:59;;;;;;;3.47;1.20;;;;;;;17.11;47.16;99770.72;2617755;54;20557;-69
2022/07/10 07:33:29;;;;;;;3.47;0.93;;;;;;;17.19;46.85;99767.81;2617856;54;20042;-68
2022/07/10 07:35:58;;;;;;;4.80;1.13;;;;;;;17.22;47.02;99781.53;2617928;54;20077;-68
2022/07/10 07:38:28;;;;;;;5.18;1.42;;;;;;;17.14;45.91;99773.78;2617862;54;20030;-68
2022/07/10 07:40:57;;;;;;;4.00;1.25;;;;;;;16.84;46.40;99771.63;2617942;54;20039;-69
2022/07/10 07:43:29;;;;;;;2.30;0.98;;;;;;;16.88;46.90;99769.34;2617746;54;20166;-68
2022/07/10 07:45:59;;;;;;;2.00;0.90;;;;;;;17.06;46.12;99771.34;2616446;54;20030;-68
2022/07/10 07:48:29;;;;;;;2.63;1.23;;;;;;;16.87;46.16;99772.25;2617444;54;20534;-70
2022/07/10 07:50:58;;;;;;;5.90;1.70;;;;;;;16.72;46.49;99780.44;2617902;54;20545;-70
2022/07/10 07:53:28;;;;;;;5.78;2.45;;;;;;;16.67;47.02;99777.59;2617336;47;20541;-69
2022/07/10 07:55:58;;;;;;;4.63;1.42;;;;;;;16.50;46.21;99775.34;2617763;54;20054;-69
2022/07/10 07:58:30;;;;;;;1.33;0.93;;;;;;;16.62;45.65;99782.75;2618223;39;20425;-69
2022/07/10 08:01:00;;;;;;;2.22;1.20;;;;;;;16.50;46.06;99779.88;2617312;54;20065;-69
2022/07/10 08:03:30;;;;;;;3.78;1.23;;;;;;;16.33;46.60;99788.31;2617662;54;20034;-71
2022/07/10 08:06:19;;;;;;;2.15;1.35;;;;;;;16.41;46.73;99789.94;2617799;54;20034;-69
2022/07/10 08:08:49;;;;;;;4.18;1.20;;;;;;;16.57;46.58;99786.84;2617558;54;20051;-68
2022/07/10 08:11:19;;;;;;;2.95;0.93;;;;;;;16.92;45.90;99791.94;2616942;47;20035;-67
2022/07/10 08:13:51;;;;;;;3.10;1.15;;;;;;;16.92;45.84;99783.91;2617566;54;20550;-69
2022/07/10 08:16:21;;;;;;;6.63;1.38;;;;;;;17.08;45.99;99788.81;2617590;54;20043;-68
2022/07/10 08:18:50;;;;;;;3.85;1.15;;;;;;;17.28;44.93;99783.38;2617439;54;20034;-70
2022/07/10 08:21:22;;;;;;;3.15;1.60;;;;;;;17.45;44.95;99777.56;2617350;54;20058;-69
2022/07/10 08:23:53;;;;;;;4.13;0.80;;;;;;;17.47;44.56;99767.44;2617383;51;20034;-68
2022/07/10 08:26:23;;;;;;;3.13;1.17;;;;;;;17.70;42.50;99769.59;2617623;54;20545;-69
2022/07/10 08:28:55;;;;;;;2.55;0.90;;;;;;;17.67;43.43;99768.16;2617480;54;20030;-69
2022/07/10 08:31:24;;;;;;;4.20;1.27;;;;;;;17.71;43.11;99763.19;2617397;54;20061;-69
2022/07/10 08:33:54;;;;;;;2.95;1.13;;;;;;;17.73;43.43;99767.31;2617388;54;20035;-69
2022/07/10 08:36:24;;;;;;;4.65;0.93;;;;;;;17.70;42.89;99766.91;2617620;54;20041;-68
2022/07/10 08:39:15;;;;;;;3.40;1.02;;;;;;;17.46;43.35;99768.50;2623470;54;20034;-71
2022/07/10 08:41:45;;;;;;;2.75;1.00;;;;;;;17.60;43.45;99754.03;2624953;54;20033;-67
2022/07/10 08:44:17;;;;;;;2.92;1.00;;;;;;;17.97;42.38;99759.56;2620623;54;20042;-66
2022/07/10 08:46:47;;;;;;;3.50;1.00;;;;;;;18.05;41.65;99745.94;2617613;54;20046;-66
2022/07/10 08:49:19;;;;;;;3.13;0.93;;;;;;;18.12;42.40;99735.97;2617768;54;20039;-67
2022/07/10 08:51:58;;;;;;;9.35;6.50;;;;;;;18.44;41.54;99744.75;2617671;54;20026;-67
2022/07/10 08:54:31;;;;;;;3.22;1.50;;;;;;;18.56;40.60;99745.66;2616838;47;20051;-67
2022/07/10 08:57:02;;;;;;;2.35;1.30;;;;;;;18.81;40.43;99734.91;2617521;54;20061;-67
2022/07/10 08:59:34;;;;;;;3.13;0.98;;;;;;;18.65;40.63;99740.81;2617706;54;20086;-69
2022/07/10 09:02:04;;;;;;;4.97;1.05;;;;;;;18.80;40.94;99745.84;2617040;54;20046;-68
2022/07/10 09:04:33;;;;;;;4.88;1.00;;;;;;;18.73;41.14;99745.91;2617291;54;20046;-66
2022/07/10 09:07:04;;;;;;;2.60;0.77;;;;;;;18.70;41.49;99741.03;2617351;54;20030;-67
2022/07/10 09:09:33;;;;;;;4.53;1.20;;;;;;;18.66;41.62;99741.66;2617957;39;20434;-67
2022/07/10 09:12:03;;;;;;;4.70;1.00;;;;;;;18.59;41.35;99735.56;2617828;54;20027;-67
2022/07/10 09:14:35;;;;;;;2.90;0.95;;;;;;;18.72;41.23;99732.75;2618506;54;20035;-67
2022/07/10 09:17:05;;;;;;;3.03;1.30;;;;;;;18.94;41.21;99725.91;2618382;54;20034;-68
2022/07/10 09:19:35;;;;;;;3.35;1.25;;;;;;;19.11;40.31;99715.41;2617913;47;20033;-67
2022/07/10 09:22:08;;;;;;;2.80;1.30;;;;;;;19.33;39.44;99723.75;2618794;54;20123;-66
2022/07/10 09:24:38;;;;;;;3.83;1.53;;;;;;;19.47;39.98;99729.75;2620324;54;20045;-67
2022/07/10 09:27:09;;;;;;;4.70;1.30;;;;;;;19.58;39.15;99726.28;2622063;54;20275;-67
2022/07/10 09:29:54;;;;;;;1.92;0.95;;;;;;;19.64;39.10;99728.09;2622066;54;20160;-67
2022/07/10 09:32:23;;;;;;;2.05;0.80;;;;;;;19.37;38.86;99729.47;2619508;54;20037;-68
2022/07/10 09:36:04;;;;;;;4.15;1.23;;;;;;;19.20;39.64;99729.31;2618439;54;20031;-67
2022/07/10 09:37:45;;;;;;;3.60;1.30;;;;;;;19.39;39.05;99724.69;2618415;54;20052;-67
2022/07/10 09:40:14;;;;;;;2.97;0.95;;;;;;;19.20;38.41;99726.63;2622603;54;20026;-67
2022/07/10 09:42:47;;;;;;;3.17;1.35;;;;;;;19.19;38.82;99725.81;2625175;54;20649;-68
2022/07/10 09:45:21;;;;;;;6.20;3.35;;;;;;;19.05;38.36;99727.81;2626777;54;20036;-68
2022/07/10 09:48:00;;;;;;;8.23;4.80;;;;;;;19.01;38.15;99720.47;2628015;39;20493;-72
2022/07/10 09:50:31;;;;;;;8.43;1.38;;;;;;;19.04;38.43;99720.84;2624128;54;20034;-68
2022/07/10 09:53:03;;;;;;;3.50;1.10;;;;;;;18.90;38.59;99723.88;2618633;54;20034;-67
2022/07/10 09:55:34;;;;;;;5.35;1.20;;;;;;;18.91;39.43;99720.19;2618218;54;20031;-67
2022/07/10 09:58:06;;;;;;;2.78;0.90;;;;;;;19.25;38.86;99722.22;2618125;54;20044;-68
2022/07/10 10:00:40;;;;;;;3.50;1.10;;;;;;;19.34;38.55;99708.47;2618232;54;20581;-68
2022/07/10 10:03:12;;;;;;;4.47;0.98;;;;;;;19.54;38.12;99709.03;2617471;47;20030;-68
2022/07/10 10:05:45;;;;;;;7.75;1.58;;;;;;;19.62;38.22;99706.03;2619010;39;20325;-69
2022/07/10 10:08:20;;;;;;;2.47;1.30;;;;;;;19.73;37.25;99707.94;2618793;54;20110;-66
2022/07/10 10:10:50;;;;;;;4.55;1.30;;;;;;;19.67;38.11;99702.66;2617797;54;20027;-67
2022/07/10 10:13:21;;;;;;;2.58;1.35;;;;;;;19.64;38.08;99695.09;2617996;54;20026;-66
2022/07/10 10:15:54;;;;;;;3.13;1.10;;;;;;;19.74;37.73;99693.47;2617569;47;20553;-67
2022/07/10 10:18:25;;;;;;;1.35;0.85;;;;;;;19.76;37.91;99691.38;2619093;54;20773;-67
2022/07/10 10:20:53;;;;;;;3.03;1.10;;;;;;;19.99;37.71;99689.78;2618525;54;20126;-67
2022/07/10 10:23:24;;;;;;;3.17;1.30;;;;;;;19.91;37.29;99692.78;2618922;46;20037;-66
2022/07/10 10:25:56;;;;;;;3.00;1.25;;;;;;;19.86;37.22;99692.69;2621879;54;20035;-66
2022/07/10 10:28:28;;;;;;;2.83;1.20;;;;;;;19.76;37.22;99688.72;2622963;54;20035;-67
2022/07/10 10:31:02;;;;;;;3.15;1.02;;;;;;;19.86;36.64;99690.00;2624104;54;20578;-67
2022/07/10 10:33:51;;;;;;;2.35;1.20;;;;;;;19.94;37.56;99689.66;2625209;54;20557;-66
2022/07/10 10:36:48;;;;;;;1.80;0.90;;;;;;;20.29;36.49;99690.50;2625015;51;20034;-68
2022/07/10 10:39:20;;;;;;;1.63;1.00;;;;;;;20.29;35.88;99684.31;2625202;54;20038;-66
2022/07/10 10:41:52;;;;;;;2.72;0.95;;;;;;;19.75;36.55;99679.00;2623966;54;20026;-67
2022/07/10 10:44:23;;;;;;;4.95;2.40;;;;;;;19.90;37.34;99675.88;2623980;54;20022;-67
2022/07/10 10:47:01;;;;;;;4.88;1.23;;;;;;;19.90;36.87;99685.81;2624181;54;20142;-66
2022/07/10 10:49:51;;;;;;;3.00;1.40;;;;;;;20.26;36.76;99668.66;2622476;47;20822;-67
2022/07/10 10:52:22;;;;;;;4.05;1.05;;;;;;;20.32;36.07;99656.97;2622547;54;20038;-70
2022/07/10 10:55:07;;;;;;;4.10;1.15;;;;;;;20.27;36.91;99664.91;2623040;54;20546;-67
2022/07/10 10:57:48;;;;;;;2.13;1.10;;;;;;;20.41;37.02;99668.16;2624147;54;20042;-67
2022/07/10 11:00:40;;;;;;;4.30;1.38;;;;;;;20.68;36.68;99668.50;2622826;54;20566;-68
2022/07/10 11:03:24;;;;;;;3.03;1.45;;;;;;;20.91;35.47;99667.63;2620154;54;20585;-68
2022/07/10 11:05:54;;;;;;;3.00;1.20;;;;;;;21.00;36.17;99667.00;2621805;54;20031;-67
2022/07/10 11:08:39;;;;;;;2.03;1.05;;;;;;;21.22;35.73;99659.06;2621397;54;20038;-68
2022/07/10 11:11:40;;;;;;;3.72;1.80;;;;;;;21.43;35.05;99656.75;2621990;54;20038;-68
2022/07/10 11:14:11;;;;;;;2.28;1.40;;;;;;;21.34;34.62;99650.97;2622511;54;20030;-67
2022/07/10 11:16:51;;;;;;;3.88;1.58;;;;;;;21.17;35.62;99655.47;2622858;39;20696;-67
2022/07/10 11:19:27;;;;;;;2.85;0.82;;;;;;;21.24;35.49;99646.19;2622601;54;20037;-67
2022/07/10 11:22:10;;;;;;;4.93;2.20;;;;;;;21.54;35.28;99652.38;2623226;54;20037;-68
2022/07/10 11:24:53;;;;;;;5.10;1.30;;;;;;;21.60;34.88;99649.53;2623282;46;20038;-68
2022/07/10 11:27:54;;;;;;;3.67;1.63;;;;;;;21.39;34.87;99652.91;2623909;54;20026;-68
2022/07/10 11:30:24;;;;;;;2.25;1.25;;;;;;;21.42;35.37;99650.56;2623487;54;20035;-68
2022/07/10 11:32:54;;;;;;;2.53;1.20;;;;;;;21.43;35.12;99662.13;2624966;54;20026;-69
2022/07/10 11:35:26;;;;;;;2.83;1.27;;;;;;;21.65;35.01;99649.63;2622457;54;20038;-68
2022/07/10 11:37:56;;;;;;;4.30;1.40;;;;;;;21.77;34.82;99660.31;2622349;54;20042;-68
2022/07/10 11:40:26;;;;;;;3.78;1.77;;;;;;;21.19;35.49;99659.56;2622114;54;20033;-69
2022/07/10 11:42:58;;;;;;;2.83;1.30;;;;;;;21.34;35.96;99650.16;2621080;54;20030;-69
2022/07/10 11:45:29;;;;;;;2.53;1.30;;;;;;;21.47;35.21;99653.38;2622298;54;20554;-67
2022/07/10 11:47:59;;;;;;;2.97;1.05;;;;;;;21.10;35.73;99654.78;2621292;54;20561;-68
2022/07/10 11:50:38;;;;;;;1.85;0.90;;;;;;;21.05;35.59;99644.75;2620625;54;20030;-71
2022/07/10 11:53:08;;;;;;;2.75;1.40;;;;;;;21.34;36.01;99639.41;2622111;54;20034;-71
2022/07/10 11:55:40;;;;;;;2.17;1.15;;;;;;;21.42;36.13;99642.50;2622359;54;20031;-70
2022/07/10 11:58:17;;;;;;;2.93;1.30;;;;;;;21.47;35.68;99639.91;2622920;39;20520;-69
2022/07/10 12:01:00;;;;;;;3.70;1.38;;;;;;;21.47;35.92;99631.84;2622234;54;20042;-69
2022/07/10 12:03:29;;;;;;;3.15;1.23;;;;;;;21.59;35.72;99639.00;2623505;39;20419;-69
2022/07/10 12:06:07;;;;;;;3.17;1.45;;;;;;;21.57;35.78;99635.75;2622413;54;20030;-71
2022/07/10 12:08:47;;;;;;;2.22;1.45;;;;;;;21.61;35.99;99632.34;2621216;39;20441;-70
2022/07/10 12:11:18;;;;;;;2.67;1.40;;;;;;;21.80;35.42;99616.75;2621879;54;20049;-70
2022/07/10 12:13:49;;;;;;;3.75;1.50;;;;;;;21.62;36.12;99633.16;2622447;54;20022;-69
2022/07/10 12:16:19;;;;;;;2.88;1.23;;;;;;;21.59;35.76;99629.06;2619748;39;20426;-70
2022/07/10 12:18:50;;;;;;;2.45;1.10;;;;;;;21.72;35.77;99623.38;2617892;54;20019;-70
2022/07/10 12:21:23;;;;;;;3.13;1.50;;;;;;;21.83;36.03;99628.88;2617747;54;20039;-69
2022/07/10 12:23:53;;;;;;;3.10;1.30;;;;;;;21.78;35.50;99626.94;2615732;47;20022;-67
2022/07/10 12:26:22;;;;;;;2.03;1.20;;;;;;;21.60;35.68;99621.81;2618211;54;20294;-65
2022/07/10 12:28:59;;;;;;;2.90;1.42;;;;;;;21.68;35.84;99622.22;2619299;54;20022;-66
2022/07/10 12:31:31;;;;;;;2.08;1.25;;;;;;;21.79;36.14;99620.50;2618484;54;20031;-66
2022/07/10 12:34:04;;;;;;;5.70;1.70;;;;;;;21.82;35.73;99611.94;2619984;47;20023;-66
2022/07/10 12:37:00;;;;;;;2.93;1.60;;;;;;;21.84;36.14;99620.59;2622000;54;20026;-66
2022/07/10 12:39:33;;;;;;;2.22;1.20;;;;;;;22.03;35.30;99613.03;2618977;54;20129;-67
2022/07/10 12:42:04;;;;;;;3.55;1.10;;;;;;;22.01;35.30;99617.88;2618887;54;20023;-64
2022/07/10 12:44:46;;;;;;;2.78;0.98;;;;;;;21.77;35.20;99618.06;2618868;54;20030;-64
2022/07/10 12:47:20;;;;;;;3.17;1.80;;;;;;;21.79;35.30;99609.72;2619083;54;20034;-64
2022/07/10 12:49:54;;;;;;;2.72;1.60;;;;;;;22.13;35.69;99607.84;2619154;54;20038;-63
2022/07/10 12:52:29;;;;;;;1.83;1.08;;;;;;;22.22;35.24;99616.31;2619171;54;20070;-62
2022/07/10 12:55:14;;;;;;;2.25;1.63;;;;;;;22.49;35.38;99597.50;2619051;54;20039;-65
2022/07/10 12:57:51;;;;;;;5.00;1.40;;;;;;;22.49;34.54;99610.97;2618694;46;20023;-63
2022/07/10 13:00:23;;;;;;;2.47;1.50;;;;;;;22.57;35.00;99620.50;2620290;39;20461;-62
2022/07/10 13:03:00;;;;;;;3.70;1.80;;;;;;;22.57;34.81;99612.41;2618771;47;20039;-65
2022/07/10 13:05:31;;;;;;;2.50;1.50;;;;;;;22.96;34.59;99597.78;2618540;47;20035;-64
2022/07/10 13:08:12;;;;;;;3.13;1.50;;;;;;;23.29;34.27;99595.94;2619022;54;20034;-64
2022/07/10 13:10:42;;;;;;;2.35;1.27;;;;;;;23.34;34.09;99605.97;2618910;54;20086;-63
2022/07/10 13:13:12;;;;;;;1.83;1.63;;;;;;;23.04;34.03;99606.50;2618932;51;20026;-65
2022/07/10 13:15:45;;;;;;;2.67;1.67;;;;;;;22.87;34.92;99622.75;2619253;54;20026;-64
2022/07/10 13:18:17;;;;;;;;;;;;;;;22.77;34.78;99614.53;2618927;54;20031;-64
2022/07/10 13:20:47;;;;;;;2.88;1.70;;;;;;;22.63;35.30;99614.94;2619172;54;20023;-65
2022/07/10 13:23:21;;;;;;;6.40;1.65;;;;;;;22.85;34.83;99616.78;2619169;54;20542;-64
2022/07/10 13:25:52;;;;;;;3.47;1.40;;;;;;;22.93;34.89;99630.66;2619225;54;20038;-64
2022/07/10 13:28:21;;;;;;;2.42;1.45;;;;;;;22.85;34.56;99622.97;2619766;39;20450;-65
2022/07/10 13:30:51;;;;;;;3.92;3.53;;;;;;;23.05;34.66;99617.03;2619146;54;20045;-63
2022/07/10 13:33:23;;;;;;;5.28;1.58;;;;;;;22.97;34.56;99618.28;2619063;54;20037;-64
2022/07/10 13:35:53;;;;;;;2.90;1.35;;;;;;;23.11;34.44;99618.72;2620056;39;20411;-66
2022/07/10 13:38:26;;;;;;;3.20;1.40;;;;;;;23.09;34.50;99615.44;2619057;39;20310;-66
2022/07/10 13:40:55;;;;;;;2.78;1.60;;;;;;;23.01;34.77;99620.47;2618621;54;20035;-63
2022/07/10 13:43:28;;;;;;;3.47;1.90;;;;;;;22.96;34.53;99613.97;2618592;54;20086;-64
2022/07/10 13:46:02;;;;;;;2.05;1.40;;;;;;;22.92;34.81;99612.84;2618871;54;20038;-64
2022/07/10 13:48:32;;;;;;;3.13;1.65;;;;;;;23.10;35.18;99630.53;2618866;54;20035;-64
2022/07/10 13:51:01;;;;;;;2.15;1.63;;;;;;;23.27;34.65;99619.69;2618726;54;20039;-63
2022/07/10 13:53:34;;;;;;;3.47;1.50;;;;;;;23.11;34.58;99618.72;2618696;54;20031;-64
2022/07/10 13:56:07;;;;;;;4.05;1.58;;;;;;;23.14;35.07;99620.88;2618270;54;20030;-64
2022/07/10 13:58:44;;;;;;;4.78;2.03;;;;;;;23.26;34.92;99623.41;2617887;54;20034;-64
2022/07/10 14:01:14;;;;;;;4.18;1.67;;;;;;;23.06;34.86;99621.34;2618030;54;20046;-63
2022/07/10 14:03:43;;;;;;;7.80;6.25;;;;;;;23.15;34.89;99611.75;2618093;54;20550;-63
2022/07/10 14:06:13;;;;;;;6.50;3.70;;;;;;;23.02;35.11;99609.44;2618928;54;20027;-65
2022/07/10 14:08:45;;;;;;;2.58;1.90;;;;;;;23.18;34.89;99626.59;2618326;47;20035;-64
2022/07/10 14:11:17;;;;;;;3.10;1.90;;;;;;;23.10;34.89;99625.16;2617885;54;20039;-63
2022/07/10 14:13:47;;;;;;;2.95;1.60;;;;;;;22.84;35.35;99634.03;2618615;54;20030;-64